Putnam Valley, New York
Current Conditions -  °F | °C
As of 9:45 PM on Wednesday 26 Nov 2014 (Local Time) from KSWF Reporting Station
Light Snow Light Snow  
Wind Chill: 24°   Ceiling: 400
Heat Index: 32°   Visibility: 1.7mi
Dew Point: 32°   Wind: 9mph
Humidity: 100%   Direction: 360°N
Pressure: 29.85"   Gusts: NA
Location:  41.37°N, 73.84°W
Report Text: KSWF 270245Z 36008KT 1 3/4SM -SN OVC004 00/00 A2985
Loading
Personal Weather Stations






























Interactive Weather Map New forecast layout! Learn more

10-Day Weather Forecast

Advertisements
Track Severe Weather on mobile